FDSK

Sikhuphe International Airport

Swaziland
METAR FDSK 230900Z 03005KT 9999 FEW040 22/08 Q1032 NOSIG
Observed Flight Rules
Oct-23 @ 09:00 UTC (40 minutes ago) Visual Flight Rules
Wind Visibility Clouds
30° at 5 knots 10,000+ meters
  • Few at 4,000' AGL
Temperatures Readings
Current 22°C / 72°F
Dewpoint 8°C / 46°F
Humidity 41%
Altimeter 30.47" Hg
Pressure 1032 hPa
Elevation 324
METAR FDSK 230900Z 03005KT 9999 FEW040 22/08 Q1032 NOSIG
Observed Flight Rules
Oct-23 @ 09:00 UTC
(40 minutes ago)
VFR
Wind Visibility
30° at 5 knots 10,000+ meters
Clouds
  • Few at 4,000' AGL
Temperature Dewpoint
22°C / 72°F 8°C / 46°F
Humidity Altimeter Pressure
41% 30.47" Hg 1032 hPa